Aviation Digital Data Service (ADDS)

Output produced by METARs form (2356 UTC 23 May 2022)
found at http://www.aviationweather.gov/metar/data/
 
Forecast for: UHWW (VLADIVOSTOK , RU)
Text: TAF UHWW 232300Z 2400/2424 22003G08MPS 6000 -SHRA BKN020CB
Forecast period: 0000 UTC 24 May 2022 to 0000 UTC 25 May 2022
Forecast type: FROM: standard forecast or significant change
Winds: from the SW (220 degrees) at 7 MPH (6 knots; 3.1 m/s)
gusting to 18 MPH (16 knots; 8.2 m/s)
Visibility: 4 miles (6 km)
Ceiling: 2000 feet AGL
Clouds: broken clouds at 2000 feet AGL
Weather: -SHRA  (light rain showers)
Text: TEMPO 2400/2412 VRB15MPS -TSRA BKN016CB
Forecast period: 0000 to 1200 UTC 24 May 2022
Forecast type: TEMPORARY: The following changes expected for less than half the time period
Winds: variable direction winds at 33 MPH (29 knots; 14.9 m/s)
Visibility: missing
Ceiling: 1600 feet AGL
Clouds: broken clouds at 1600 feet AGL
Weather: -TSRA  (light rain associated with thunderstorm(s))